sensor_id;sensor_type;location;lat;lon;timestamp;temperature;humidity
15341;DHT22;7770;52.158;5.372;2022-11-23T00:02:24;8.40;99.90
15341;DHT22;7770;52.158;5.372;2022-11-23T00:05:10;8.40;99.90
15341;DHT22;7770;52.158;5.372;2022-11-23T00:07:57;8.40;99.90
15341;DHT22;7770;52.158;5.372;2022-11-23T00:10:42;8.50;99.90
15341;DHT22;7770;52.158;5.372;2022-11-23T00:13:28;8.40;99.90
15341;DHT22;7770;52.158;5.372;2022-11-23T00:16:20;8.40;99.90
15341;DHT22;7770;52.158;5.372;2022-11-23T00:19:09;8.40;99.90
15341;DHT22;7770;52.158;5.372;2022-11-23T00:21:55;8.50;99.90
15341;DHT22;7770;52.158;5.372;2022-11-23T00:24:41;8.40;99.90
15341;DHT22;7770;52.158;5.372;2022-11-23T00:27:27;8.40;99.90
15341;DHT22;7770;52.158;5.372;2022-11-23T00:30:13;8.40;99.90
15341;DHT22;7770;52.158;5.372;2022-11-23T00:32:59;8.40;99.90
15341;DHT22;7770;52.158;5.372;2022-11-23T00:35:45;8.50;99.90
15341;DHT22;7770;52.158;5.372;2022-11-23T00:38:31;8.50;99.90
15341;DHT22;7770;52.158;5.372;2022-11-23T00:41:20;8.50;99.90
15341;DHT22;7770;52.158;5.372;2022-11-23T00:44:07;8.50;99.90
15341;DHT22;7770;52.158;5.372;2022-11-23T00:46:53;8.50;99.90
15341;DHT22;7770;52.158;5.372;2022-11-23T00:49:39;8.50;99.90
15341;DHT22;7770;52.158;5.372;2022-11-23T00:52:25;8.50;99.90
15341;DHT22;7770;52.158;5.372;2022-11-23T00:55:11;8.50;99.90
15341;DHT22;7770;52.158;5.372;2022-11-23T00:57:57;8.50;99.90
15341;DHT22;7770;52.158;5.372;2022-11-23T01:00:43;8.50;99.90
15341;DHT22;7770;52.158;5.372;2022-11-23T01:03:29;8.50;99.90
15341;DHT22;7770;52.158;5.372;2022-11-23T01:06:21;8.50;99.90
15341;DHT22;7770;52.158;5.372;2022-11-23T01:09:17;8.50;99.90
15341;DHT22;7770;52.158;5.372;2022-11-23T01:12:04;8.50;99.90
15341;DHT22;7770;52.158;5.372;2022-11-23T01:14:52;8.50;99.90
15341;DHT22;7770;52.158;5.372;2022-11-23T01:17:38;8.60;99.90
15341;DHT22;7770;52.158;5.372;2022-11-23T01:20:24;8.50;99.90
15341;DHT22;7770;52.158;5.372;2022-11-23T02:12:13;8.50;99.90
15341;DHT22;7770;52.158;5.372;2022-11-23T02:14:59;8.50;99.90
15341;DHT22;7770;52.158;5.372;2022-11-23T02:17:45;8.40;99.90
15341;DHT22;7770;52.158;5.372;2022-11-23T02:20:32;8.40;99.90
15341;DHT22;7770;52.158;5.372;2022-11-23T02:23:29;8.40;99.90
15341;DHT22;7770;52.158;5.372;2022-11-23T02:26:36;8.40;99.90
15341;DHT22;7770;52.158;5.372;2022-11-23T02:29:25;8.40;99.90
15341;DHT22;7770;52.158;5.372;2022-11-23T02:32:18;8.40;99.90
15341;DHT22;7770;52.158;5.372;2022-11-23T02:35:04;8.40;99.90
15341;DHT22;7770;52.158;5.372;2022-11-23T02:37:51;8.40;99.90
15341;DHT22;7770;52.158;5.372;2022-11-23T02:40:38;8.40;99.90
15341;DHT22;7770;52.158;5.372;2022-11-23T02:43:24;8.30;99.90
15341;DHT22;7770;52.158;5.372;2022-11-23T02:46:10;8.30;99.90
15341;DHT22;7770;52.158;5.372;2022-11-23T02:48:57;8.30;99.90
15341;DHT22;7770;52.158;5.372;2022-11-23T02:51:43;8.30;99.90
15341;DHT22;7770;52.158;5.372;2022-11-23T02:54:29;8.30;99.90
15341;DHT22;7770;52.158;5.372;2022-11-23T02:57:16;8.30;99.90
15341;DHT22;7770;52.158;5.372;2022-11-23T03:00:03;8.30;99.90
15341;DHT22;7770;52.158;5.372;2022-11-23T03:02:49;8.30;99.90
15341;DHT22;7770;52.158;5.372;2022-11-23T03:05:35;8.30;99.90
15341;DHT22;7770;52.158;5.372;2022-11-23T03:08:22;8.30;99.90
15341;DHT22;7770;52.158;5.372;2022-11-23T03:11:08;8.30;99.90
15341;DHT22;7770;52.158;5.372;2022-11-23T03:13:54;8.40;99.90
15341;DHT22;7770;52.158;5.372;2022-11-23T03:16:40;8.40;99.90
15341;DHT22;7770;52.158;5.372;2022-11-23T03:19:26;8.30;99.90
15341;DHT22;7770;52.158;5.372;2022-11-23T03:22:12;8.30;99.90
15341;DHT22;7770;52.158;5.372;2022-11-23T03:24:58;8.20;99.90
15341;DHT22;7770;52.158;5.372;2022-11-23T03:27:44;8.20;99.90
15341;DHT22;7770;52.158;5.372;2022-11-23T03:30:30;8.10;99.90
15341;DHT22;7770;52.158;5.372;2022-11-23T03:33:17;8.10;99.90
15341;DHT22;7770;52.158;5.372;2022-11-23T03:36:03;8.10;99.90
15341;DHT22;7770;52.158;5.372;2022-11-23T03:38:49;8.10;99.90
15341;DHT22;7770;52.158;5.372;2022-11-23T03:41:35;8.20;99.90
15341;DHT22;7770;52.158;5.372;2022-11-23T03:44:22;8.10;99.90
15341;DHT22;7770;52.158;5.372;2022-11-23T03:47:08;8.10;99.90
15341;DHT22;7770;52.158;5.372;2022-11-23T03:49:54;8.10;99.90
15341;DHT22;7770;52.158;5.372;2022-11-23T03:52:40;8.20;99.90
15341;DHT22;7770;52.158;5.372;2022-11-23T03:55:26;8.10;99.90
15341;DHT22;7770;52.158;5.372;2022-11-23T03:58:12;8.10;99.90
15341;DHT22;7770;52.158;5.372;2022-11-23T04:01:00;8.20;99.90
15341;DHT22;7770;52.158;5.372;2022-11-23T04:03:46;8.20;99.90
15341;DHT22;7770;52.158;5.372;2022-11-23T04:06:32;8.20;99.90
15341;DHT22;7770;52.158;5.372;2022-11-23T04:09:18;8.20;99.90
15341;DHT22;7770;52.158;5.372;2022-11-23T04:12:04;8.20;99.90
15341;DHT22;7770;52.158;5.372;2022-11-23T04:14:51;8.20;99.90
15341;DHT22;7770;52.158;5.372;2022-11-23T04:17:37;8.20;99.90
15341;DHT22;7770;52.158;5.372;2022-11-23T04:20:23;8.20;99.90
15341;DHT22;7770;52.158;5.372;2022-11-23T04:23:09;8.20;99.90
15341;DHT22;7770;52.158;5.372;2022-11-23T04:25:55;8.30;99.90
15341;DHT22;7770;52.158;5.372;2022-11-23T04:28:41;8.30;99.90
15341;DHT22;7770;52.158;5.372;2022-11-23T04:31:27;8.30;99.90
15341;DHT22;7770;52.158;5.372;2022-11-23T04:34:13;8.30;99.90
15341;DHT22;7770;52.158;5.372;2022-11-23T04:36:59;8.30;99.90
15341;DHT22;7770;52.158;5.372;2022-11-23T04:39:45;8.30;99.90
15341;DHT22;7770;52.158;5.372;2022-11-23T04:42:31;8.30;99.90
15341;DHT22;7770;52.158;5.372;2022-11-23T04:45:17;8.30;99.90
15341;DHT22;7770;52.158;5.372;2022-11-23T04:48:04;8.30;99.90
15341;DHT22;7770;52.158;5.372;2022-11-23T04:50:50;8.30;99.90
15341;DHT22;7770;52.158;5.372;2022-11-23T04:53:36;8.30;99.90
15341;DHT22;7770;52.158;5.372;2022-11-23T04:56:22;8.30;99.90
15341;DHT22;7770;52.158;5.372;2022-11-23T04:59:08;8.30;99.90
15341;DHT22;7770;52.158;5.372;2022-11-23T05:01:54;8.30;99.90
15341;DHT22;7770;52.158;5.372;2022-11-23T05:04:41;8.30;99.90
15341;DHT22;7770;52.158;5.372;2022-11-23T05:07:27;8.30;99.90
15341;DHT22;7770;52.158;5.372;2022-11-23T05:10:12;8.30;99.90
15341;DHT22;7770;52.158;5.372;2022-11-23T05:12:58;8.20;99.90
15341;DHT22;7770;52.158;5.372;2022-11-23T05:15:45;8.20;99.90
15341;DHT22;7770;52.158;5.372;2022-11-23T05:18:31;8.10;99.90
15341;DHT22;7770;52.158;5.372;2022-11-23T05:21:17;8.00;99.90
15341;DHT22;7770;52.158;5.372;2022-11-23T05:24:03;8.00;99.90
15341;DHT22;7770;52.158;5.372;2022-11-23T05:26:49;7.90;99.90
15341;DHT22;7770;52.158;5.372;2022-11-23T05:29:35;7.90;99.90
15341;DHT22;7770;52.158;5.372;2022-11-23T05:32:21;8.00;99.90
15341;DHT22;7770;52.158;5.372;2022-11-23T05:35:08;8.00;99.90
15341;DHT22;7770;52.158;5.372;2022-11-23T05:37:55;8.00;99.90
15341;DHT22;7770;52.158;5.372;2022-11-23T05:40:41;8.00;99.90
15341;DHT22;7770;52.158;5.372;2022-11-23T05:43:27;8.10;99.90
15341;DHT22;7770;52.158;5.372;2022-11-23T05:46:13;8.10;99.90
15341;DHT22;7770;52.158;5.372;2022-11-23T05:48:59;8.20;99.90
15341;DHT22;7770;52.158;5.372;2022-11-23T05:51:45;8.20;99.90
15341;DHT22;7770;52.158;5.372;2022-11-23T05:54:31;8.30;99.90
15341;DHT22;7770;52.158;5.372;2022-11-23T05:57:17;8.30;99.90
15341;DHT22;7770;52.158;5.372;2022-11-23T06:00:07;8.30;99.90
15341;DHT22;7770;52.158;5.372;2022-11-23T06:02:59;8.30;99.90
15341;DHT22;7770;52.158;5.372;2022-11-23T06:05:46;8.30;99.90
15341;DHT22;7770;52.158;5.372;2022-11-23T06:08:32;8.30;99.90
15341;DHT22;7770;52.158;5.372;2022-11-23T06:11:18;8.30;99.90
15341;DHT22;7770;52.158;5.372;2022-11-23T06:14:04;8.30;99.90
15341;DHT22;7770;52.158;5.372;2022-11-23T06:16:50;8.40;99.90
15341;DHT22;7770;52.158;5.372;2022-11-23T06:19:36;8.30;99.90
15341;DHT22;7770;52.158;5.372;2022-11-23T06:22:22;8.30;99.90
15341;DHT22;7770;52.158;5.372;2022-11-23T06:25:08;8.30;99.90
15341;DHT22;7770;52.158;5.372;2022-11-23T06:27:55;8.40;99.90
15341;DHT22;7770;52.158;5.372;2022-11-23T06:30:42;8.30;99.90
15341;DHT22;7770;52.158;5.372;2022-11-23T06:33:28;8.30;99.90
15341;DHT22;7770;52.158;5.372;2022-11-23T06:36:14;8.30;99.90
15341;DHT22;7770;52.158;5.372;2022-11-23T06:39:00;8.30;99.90
15341;DHT22;7770;52.158;5.372;2022-11-23T06:41:46;8.30;99.90
15341;DHT22;7770;52.158;5.372;2022-11-23T06:44:32;8.30;99.90
15341;DHT22;7770;52.158;5.372;2022-11-23T06:47:18;8.30;99.90
15341;DHT22;7770;52.158;5.372;2022-11-23T06:50:05;8.20;99.90
15341;DHT22;7770;52.158;5.372;2022-11-23T06:52:56;8.20;99.90
15341;DHT22;7770;52.158;5.372;2022-11-23T06:55:43;8.20;99.90
15341;DHT22;7770;52.158;5.372;2022-11-23T06:58:29;8.20;99.90
15341;DHT22;7770;52.158;5.372;2022-11-23T07:01:15;8.10;99.90
15341;DHT22;7770;52.158;5.372;2022-11-23T07:04:01;8.10;99.90
15341;DHT22;7770;52.158;5.372;2022-11-23T07:06:47;8.00;99.90
15341;DHT22;7770;52.158;5.372;2022-11-23T07:09:33;8.00;99.90
15341;DHT22;7770;52.158;5.372;2022-11-23T07:12:19;7.90;99.90
15341;DHT22;7770;52.158;5.372;2022-11-23T07:15:06;7.90;99.90
15341;DHT22;7770;52.158;5.372;2022-11-23T07:17:53;7.90;99.90
15341;DHT22;7770;52.158;5.372;2022-11-23T07:20:39;7.80;99.90
15341;DHT22;7770;52.158;5.372;2022-11-23T07:23:25;7.70;99.90
15341;DHT22;7770;52.158;5.372;2022-11-23T07:26:11;7.60;99.90
15341;DHT22;7770;52.158;5.372;2022-11-23T07:28:57;7.60;99.90
15341;DHT22;7770;52.158;5.372;2022-11-23T07:31:43;7.50;99.90
15341;DHT22;7770;52.158;5.372;2022-11-23T07:34:29;7.50;99.90
15341;DHT22;7770;52.158;5.372;2022-11-23T07:37:15;7.50;99.90
15341;DHT22;7770;52.158;5.372;2022-11-23T07:40:01;7.50;99.90
15341;DHT22;7770;52.158;5.372;2022-11-23T07:42:47;7.50;99.90
15341;DHT22;7770;52.158;5.372;2022-11-23T07:45:33;7.50;99.90
15341;DHT22;7770;52.158;5.372;2022-11-23T07:48:21;7.50;99.90
15341;DHT22;7770;52.158;5.372;2022-11-23T07:51:07;7.50;99.90
15341;DHT22;7770;52.158;5.372;2022-11-23T07:53:53;7.60;99.90
15341;DHT22;7770;52.158;5.372;2022-11-23T07:56:39;7.60;99.90
15341;DHT22;7770;52.158;5.372;2022-11-23T07:59:25;7.70;99.90
15341;DHT22;7770;52.158;5.372;2022-11-23T08:02:13;7.70;99.90
15341;DHT22;7770;52.158;5.372;2022-11-23T08:04:59;7.80;99.90
15341;DHT22;7770;52.158;5.372;2022-11-23T08:07:45;7.90;99.90
15341;DHT22;7770;52.158;5.372;2022-11-23T08:10:32;7.90;99.90
15341;DHT22;7770;52.158;5.372;2022-11-23T08:13:18;7.90;99.90
15341;DHT22;7770;52.158;5.372;2022-11-23T08:16:05;8.00;99.90
15341;DHT22;7770;52.158;5.372;2022-11-23T08:18:51;8.00;99.90
15341;DHT22;7770;52.158;5.372;2022-11-23T08:21:37;8.00;99.90
15341;DHT22;7770;52.158;5.372;2022-11-23T08:24:23;8.10;99.90
15341;DHT22;7770;52.158;5.372;2022-11-23T08:27:09;8.10;99.90
15341;DHT22;7770;52.158;5.372;2022-11-23T08:29:55;8.20;99.90
15341;DHT22;7770;52.158;5.372;2022-11-23T08:32:41;8.20;99.90
15341;DHT22;7770;52.158;5.372;2022-11-23T08:35:28;8.10;99.90
15341;DHT22;7770;52.158;5.372;2022-11-23T08:38:14;8.10;99.90
15341;DHT22;7770;52.158;5.372;2022-11-23T08:41:00;8.10;99.90
15341;DHT22;7770;52.158;5.372;2022-11-23T08:43:47;8.10;99.90
15341;DHT22;7770;52.158;5.372;2022-11-23T08:46:33;8.10;99.90
15341;DHT22;7770;52.158;5.372;2022-11-23T08:49:19;8.10;99.90
15341;DHT22;7770;52.158;5.372;2022-11-23T08:52:05;8.20;99.90
15341;DHT22;7770;52.158;5.372;2022-11-23T08:54:51;8.30;99.90
15341;DHT22;7770;52.158;5.372;2022-11-23T08:57:37;8.50;99.90
15341;DHT22;7770;52.158;5.372;2022-11-23T09:00:25;8.70;99.90
15341;DHT22;7770;52.158;5.372;2022-11-23T09:03:11;8.80;99.90
15341;DHT22;7770;52.158;5.372;2022-11-23T09:05:59;8.80;99.90
15341;DHT22;7770;52.158;5.372;2022-11-23T09:08:45;8.80;99.90
15341;DHT22;7770;52.158;5.372;2022-11-23T09:11:31;8.70;99.90
15341;DHT22;7770;52.158;5.372;2022-11-23T09:14:17;8.80;99.90
15341;DHT22;7770;52.158;5.372;2022-11-23T09:17:03;8.80;99.90
15341;DHT22;7770;52.158;5.372;2022-11-23T09:19:49;8.80;99.90
15341;DHT22;7770;52.158;5.372;2022-11-23T09:22:36;8.80;99.90
15341;DHT22;7770;52.158;5.372;2022-11-23T09:25:22;8.80;99.90
15341;DHT22;7770;52.158;5.372;2022-11-23T09:28:09;9.00;99.90
15341;DHT22;7770;52.158;5.372;2022-11-23T09:30:57;9.30;99.90
15341;DHT22;7770;52.158;5.372;2022-11-23T09:33:51;10.30;99.90
15341;DHT22;7770;52.158;5.372;2022-11-23T09:36:38;10.60;99.90
15341;DHT22;7770;52.158;5.372;2022-11-23T09:39:24;10.30;99.90
15341;DHT22;7770;52.158;5.372;2022-11-23T09:45:50;12.40;99.90
15341;DHT22;7770;52.158;5.372;2022-11-23T09:49:07;14.90;99.90
15341;DHT22;7770;52.158;5.372;2022-11-23T09:51:55;15.60;99.90
15341;DHT22;7770;52.158;5.372;2022-11-23T09:54:43;15.50;99.90
15341;DHT22;7770;52.158;5.372;2022-11-23T09:57:31;15.80;99.90
15341;DHT22;7770;52.158;5.372;2022-11-23T10:00:21;16.00;99.90
15341;DHT22;7770;52.158;5.372;2022-11-23T10:03:13;15.70;99.90
15341;DHT22;7770;52.158;5.372;2022-11-23T10:06:12;16.20;99.90
15341;DHT22;7770;52.158;5.372;2022-11-23T10:12:48;16.40;99.90
15341;DHT22;7770;52.158;5.372;2022-11-23T10:16:04;16.80;99.90
15341;DHT22;7770;52.158;5.372;2022-11-23T10:22:18;15.50;99.90
15341;DHT22;7770;52.158;5.372;2022-11-23T10:25:18;16.70;99.90
15341;DHT22;7770;52.158;5.372;2022-11-23T10:28:12;16.20;99.90
15341;DHT22;7770;52.158;5.372;2022-11-23T10:31:06;15.90;99.90
15341;DHT22;7770;52.158;5.372;2022-11-23T10:34:13;16.70;99.90
15341;DHT22;7770;52.158;5.372;2022-11-23T10:37:01;16.20;99.90
15341;DHT22;7770;52.158;5.372;2022-11-23T10:39:47;16.00;99.90
15341;DHT22;7770;52.158;5.372;2022-11-23T10:42:42;16.80;99.90
15341;DHT22;7770;52.158;5.372;2022-11-23T10:45:30;16.60;99.90
15341;DHT22;7770;52.158;5.372;2022-11-23T10:48:35;16.50;99.90
15341;DHT22;7770;52.158;5.372;2022-11-23T10:51:31;15.10;99.90
15341;DHT22;7770;52.158;5.372;2022-11-23T10:55:06;15.40;99.90
15341;DHT22;7770;52.158;5.372;2022-11-23T10:57:40;14.60;99.90
15341;DHT22;7770;52.158;5.372;2022-11-23T11:00:28;14.50;99.90
15341;DHT22;7770;52.158;5.372;2022-11-23T11:03:23;14.70;99.90
15341;DHT22;7770;52.158;5.372;2022-11-23T11:06:10;15.60;99.90
15341;DHT22;7770;52.158;5.372;2022-11-23T11:09:00;14.00;99.90
15341;DHT22;7770;52.158;5.372;2022-11-23T11:11:51;12.60;99.90
15341;DHT22;7770;52.158;5.372;2022-11-23T11:14:57;11.60;99.90
15341;DHT22;7770;52.158;5.372;2022-11-23T11:17:54;11.00;99.90
15341;DHT22;7770;52.158;5.372;2022-11-23T11:20:44;10.60;99.90
15341;DHT22;7770;52.158;5.372;2022-11-23T11:23:32;10.50;99.90
15341;DHT22;7770;52.158;5.372;2022-11-23T11:26:25;10.40;99.90
15341;DHT22;7770;52.158;5.372;2022-11-23T11:29:30;10.40;99.90
15341;DHT22;7770;52.158;5.372;2022-11-23T11:32:39;10.40;99.90
15341;DHT22;7770;52.158;5.372;2022-11-23T11:35:36;10.10;99.90
15341;DHT22;7770;52.158;5.372;2022-11-23T11:38:32;9.90;99.90
15341;DHT22;7770;52.158;5.372;2022-11-23T11:41:20;10.00;99.90
15341;DHT22;7770;52.158;5.372;2022-11-23T11:44:18;10.00;99.90
15341;DHT22;7770;52.158;5.372;2022-11-23T11:47:22;10.70;99.90
15341;DHT22;7770;52.158;5.372;2022-11-23T11:50:22;10.70;99.90
15341;DHT22;7770;52.158;5.372;2022-11-23T11:53:14;10.40;99.90
15341;DHT22;7770;52.158;5.372;2022-11-23T11:56:10;10.30;99.90
15341;DHT22;7770;52.158;5.372;2022-11-23T11:59:38;11.10;99.90
15341;DHT22;7770;52.158;5.372;2022-11-23T12:02:39;12.30;99.90
15341;DHT22;7770;52.158;5.372;2022-11-23T12:05:47;12.90;99.90
15341;DHT22;7770;52.158;5.372;2022-11-23T12:08:54;13.70;99.90
15341;DHT22;7770;52.158;5.372;2022-11-23T12:11:45;13.50;99.90
15341;DHT22;7770;52.158;5.372;2022-11-23T12:14:31;13.20;99.90
15341;DHT22;7770;52.158;5.372;2022-11-23T12:24:03;12.20;99.90
15341;DHT22;7770;52.158;5.372;2022-11-23T12:27:24;11.90;99.90
15341;DHT22;7770;52.158;5.372;2022-11-23T12:39:54;10.60;99.90
15341;DHT22;7770;52.158;5.372;2022-11-23T12:42:50;10.50;99.90
15341;DHT22;7770;52.158;5.372;2022-11-23T12:46:06;10.30;99.90
15341;DHT22;7770;52.158;5.372;2022-11-23T12:49:19;10.40;99.90
15341;DHT22;7770;52.158;5.372;2022-11-23T12:52:34;10.50;99.90
15341;DHT22;7770;52.158;5.372;2022-11-23T12:58:49;10.50;99.90
15341;DHT22;7770;52.158;5.372;2022-11-23T13:01:43;10.40;99.90
15341;DHT22;7770;52.158;5.372;2022-11-23T13:18:21;10.20;99.90
15341;DHT22;7770;52.158;5.372;2022-11-23T13:21:25;10.20;99.90
15341;DHT22;7770;52.158;5.372;2022-11-23T13:24:36;10.10;99.90
15341;DHT22;7770;52.158;5.372;2022-11-23T13:36:01;10.10;99.90
15341;DHT22;7770;52.158;5.372;2022-11-23T13:38:47;10.10;99.90
15341;DHT22;7770;52.158;5.372;2022-11-23T13:44:25;10.10;99.90
15341;DHT22;7770;52.158;5.372;2022-11-23T13:50:16;10.10;99.90
15341;DHT22;7770;52.158;5.372;2022-11-23T13:53:25;10.10;99.90
15341;DHT22;7770;52.158;5.372;2022-11-23T13:59:28;9.80;99.90
15341;DHT22;7770;52.158;5.372;2022-11-23T14:05:30;9.20;99.90
15341;DHT22;7770;52.158;5.372;2022-11-23T14:08:38;8.90;99.90
15341;DHT22;7770;52.158;5.372;2022-11-23T14:11:25;8.80;99.90
15341;DHT22;7770;52.158;5.372;2022-11-23T14:14:19;8.70;99.90
15341;DHT22;7770;52.158;5.372;2022-11-23T14:20:49;8.50;99.90
15341;DHT22;7770;52.158;5.372;2022-11-23T14:24:05;8.50;99.90
15341;DHT22;7770;52.158;5.372;2022-11-23T14:30:28;8.40;99.90
15341;DHT22;7770;52.158;5.372;2022-11-23T14:33:58;8.40;99.90
15341;DHT22;7770;52.158;5.372;2022-11-23T14:43:11;8.40;99.90
15341;DHT22;7770;52.158;5.372;2022-11-23T14:46:03;8.30;99.90
15341;DHT22;7770;52.158;5.372;2022-11-23T14:49:04;8.30;99.90
15341;DHT22;7770;52.158;5.372;2022-11-23T14:51:52;8.30;99.90
15341;DHT22;7770;52.158;5.372;2022-11-23T14:54:38;8.30;99.90
15341;DHT22;7770;52.158;5.372;2022-11-23T14:57:28;8.30;99.90
15341;DHT22;7770;52.158;5.372;2022-11-23T15:00:39;8.30;99.90
15341;DHT22;7770;52.158;5.372;2022-11-23T15:03:30;8.20;99.90
15341;DHT22;7770;52.158;5.372;2022-11-23T15:06:27;8.20;99.90
15341;DHT22;7770;52.158;5.372;2022-11-23T15:12:46;8.20;99.90
15341;DHT22;7770;52.158;5.372;2022-11-23T15:15:33;8.20;99.90
15341;DHT22;7770;52.158;5.372;2022-11-23T15:18:35;8.20;99.90
15341;DHT22;7770;52.158;5.372;2022-11-23T15:21:25;8.20;99.90
15341;DHT22;7770;52.158;5.372;2022-11-23T15:24:25;8.20;99.90
15341;DHT22;7770;52.158;5.372;2022-11-23T15:27:15;8.20;99.90
15341;DHT22;7770;52.158;5.372;2022-11-23T15:30:15;8.20;99.90
15341;DHT22;7770;52.158;5.372;2022-11-23T15:33:04;8.20;99.90
15341;DHT22;7770;52.158;5.372;2022-11-23T15:35:56;8.10;99.90
15341;DHT22;7770;52.158;5.372;2022-11-23T15:38:43;8.10;99.90
15341;DHT22;7770;52.158;5.372;2022-11-23T15:41:29;8.10;99.90
15341;DHT22;7770;52.158;5.372;2022-11-23T15:44:23;8.10;99.90
15341;DHT22;7770;52.158;5.372;2022-11-23T15:47:14;8.10;99.90
15341;DHT22;7770;52.158;5.372;2022-11-23T15:50:08;8.10;99.90
15341;DHT22;7770;52.158;5.372;2022-11-23T15:52:54;8.00;99.90
15341;DHT22;7770;52.158;5.372;2022-11-23T15:55:44;8.00;99.90
15341;DHT22;7770;52.158;5.372;2022-11-23T15:58:31;8.10;99.90
15341;DHT22;7770;52.158;5.372;2022-11-23T16:01:20;8.10;99.90
15341;DHT22;7770;52.158;5.372;2022-11-23T16:07:23;8.10;99.90
15341;DHT22;7770;52.158;5.372;2022-11-23T16:10:18;8.10;99.90
15341;DHT22;7770;52.158;5.372;2022-11-23T16:13:05;8.10;99.90
15341;DHT22;7770;52.158;5.372;2022-11-23T16:16:14;8.10;99.90
15341;DHT22;7770;52.158;5.372;2022-11-23T16:19:05;8.10;99.90
15341;DHT22;7770;52.158;5.372;2022-11-23T16:22:06;8.10;99.90
15341;DHT22;7770;52.158;5.372;2022-11-23T16:25:29;8.10;99.90
15341;DHT22;7770;52.158;5.372;2022-11-23T16:28:30;8.10;99.90
15341;DHT22;7770;52.158;5.372;2022-11-23T16:31:34;8.10;99.90
15341;DHT22;7770;52.158;5.372;2022-11-23T16:34:22;8.20;99.90
15341;DHT22;7770;52.158;5.372;2022-11-23T16:37:09;8.20;99.90
15341;DHT22;7770;52.158;5.372;2022-11-23T16:39:55;8.20;99.90
15341;DHT22;7770;52.158;5.372;2022-11-23T16:42:41;8.20;99.90
15341;DHT22;7770;52.158;5.372;2022-11-23T16:45:27;8.20;99.90
15341;DHT22;7770;52.158;5.372;2022-11-23T16:51:11;8.20;99.90
15341;DHT22;7770;52.158;5.372;2022-11-23T16:53:59;8.20;99.90
15341;DHT22;7770;52.158;5.372;2022-11-23T16:56:45;8.20;99.90
15341;DHT22;7770;52.158;5.372;2022-11-23T16:59:31;8.20;99.90
15341;DHT22;7770;52.158;5.372;2022-11-23T17:02:17;8.30;99.90
15341;DHT22;7770;52.158;5.372;2022-11-23T17:05:13;8.20;99.90
15341;DHT22;7770;52.158;5.372;2022-11-23T17:08:00;8.30;99.90
15341;DHT22;7770;52.158;5.372;2022-11-23T17:10:46;8.30;99.90
15341;DHT22;7770;52.158;5.372;2022-11-23T17:13:32;8.30;99.90
15341;DHT22;7770;52.158;5.372;2022-11-23T17:16:21;8.30;99.90
15341;DHT22;7770;52.158;5.372;2022-11-23T17:19:17;8.40;99.90
15341;DHT22;7770;52.158;5.372;2022-11-23T17:22:04;8.40;99.90
15341;DHT22;7770;52.158;5.372;2022-11-23T17:24:50;8.40;99.90
15341;DHT22;7770;52.158;5.372;2022-11-23T17:27:40;8.40;99.90
15341;DHT22;7770;52.158;5.372;2022-11-23T17:30:27;8.40;99.90
15341;DHT22;7770;52.158;5.372;2022-11-23T17:33:13;8.40;99.90
15341;DHT22;7770;52.158;5.372;2022-11-23T17:35:59;8.40;99.90
15341;DHT22;7770;52.158;5.372;2022-11-23T17:38:45;8.40;99.90
15341;DHT22;7770;52.158;5.372;2022-11-23T17:41:34;8.40;99.90
15341;DHT22;7770;52.158;5.372;2022-11-23T17:44:20;8.40;99.90
15341;DHT22;7770;52.158;5.372;2022-11-23T17:47:31;8.40;99.90
15341;DHT22;7770;52.158;5.372;2022-11-23T17:50:18;8.40;99.90
15341;DHT22;7770;52.158;5.372;2022-11-23T17:53:04;8.40;99.90
15341;DHT22;7770;52.158;5.372;2022-11-23T17:55:50;8.30;99.90
15341;DHT22;7770;52.158;5.372;2022-11-23T17:58:36;8.30;99.90
15341;DHT22;7770;52.158;5.372;2022-11-23T18:01:23;8.30;99.90
15341;DHT22;7770;52.158;5.372;2022-11-23T18:04:09;8.20;99.90
15341;DHT22;7770;52.158;5.372;2022-11-23T18:06:54;8.20;99.90
15341;DHT22;7770;52.158;5.372;2022-11-23T18:09:41;8.20;99.90
15341;DHT22;7770;52.158;5.372;2022-11-23T18:12:27;8.20;99.90
15341;DHT22;7770;52.158;5.372;2022-11-23T18:15:13;8.20;99.90
15341;DHT22;7770;52.158;5.372;2022-11-23T18:17:59;8.20;99.90
15341;DHT22;7770;52.158;5.372;2022-11-23T18:20:45;8.20;99.90
15341;DHT22;7770;52.158;5.372;2022-11-23T18:23:32;8.20;99.90
15341;DHT22;7770;52.158;5.372;2022-11-23T18:26:23;8.20;99.90
15341;DHT22;7770;52.158;5.372;2022-11-23T18:29:10;8.20;99.90
15341;DHT22;7770;52.158;5.372;2022-11-23T18:31:56;8.20;99.90
15341;DHT22;7770;52.158;5.372;2022-11-23T18:34:42;8.10;99.90
15341;DHT22;7770;52.158;5.372;2022-11-23T18:37:28;8.00;99.90
15341;DHT22;7770;52.158;5.372;2022-11-23T18:40:14;8.10;99.90
15341;DHT22;7770;52.158;5.372;2022-11-23T18:43:00;8.00;99.90
15341;DHT22;7770;52.158;5.372;2022-11-23T18:45:46;8.00;99.90
15341;DHT22;7770;52.158;5.372;2022-11-23T18:48:33;8.00;99.90
15341;DHT22;7770;52.158;5.372;2022-11-23T18:51:19;7.90;99.90
15341;DHT22;7770;52.158;5.372;2022-11-23T18:54:05;7.90;99.90
15341;DHT22;7770;52.158;5.372;2022-11-23T18:56:51;7.90;99.90
15341;DHT22;7770;52.158;5.372;2022-11-23T18:59:37;7.90;99.90
15341;DHT22;7770;52.158;5.372;2022-11-23T19:02:23;7.80;99.90
15341;DHT22;7770;52.158;5.372;2022-11-23T19:05:09;7.80;99.90
15341;DHT22;7770;52.158;5.372;2022-11-23T19:07:59;7.70;99.90
15341;DHT22;7770;52.158;5.372;2022-11-23T19:10:48;7.70;99.90
15341;DHT22;7770;52.158;5.372;2022-11-23T19:13:35;7.60;99.90
15341;DHT22;7770;52.158;5.372;2022-11-23T19:16:30;7.60;99.90
15341;DHT22;7770;52.158;5.372;2022-11-23T19:19:16;7.60;99.90
15341;DHT22;7770;52.158;5.372;2022-11-23T19:22:03;7.50;99.90
15341;DHT22;7770;52.158;5.372;2022-11-23T19:24:49;7.50;99.90
15341;DHT22;7770;52.158;5.372;2022-11-23T19:27:35;7.50;99.90
15341;DHT22;7770;52.158;5.372;2022-11-23T19:30:21;7.50;99.90
15341;DHT22;7770;52.158;5.372;2022-11-23T19:33:07;7.40;99.90
15341;DHT22;7770;52.158;5.372;2022-11-23T19:35:53;7.50;99.90
15341;DHT22;7770;52.158;5.372;2022-11-23T19:38:39;7.40;99.90
15341;DHT22;7770;52.158;5.372;2022-11-23T19:41:26;7.40;99.90
15341;DHT22;7770;52.158;5.372;2022-11-23T19:44:13;7.40;99.90
15341;DHT22;7770;52.158;5.372;2022-11-23T19:46:59;7.40;99.90
15341;DHT22;7770;52.158;5.372;2022-11-23T19:49:45;7.40;99.90
15341;DHT22;7770;52.158;5.372;2022-11-23T19:52:31;7.40;99.90
15341;DHT22;7770;52.158;5.372;2022-11-23T19:55:17;7.30;99.90
15341;DHT22;7770;52.158;5.372;2022-11-23T19:58:03;7.30;99.90
15341;DHT22;7770;52.158;5.372;2022-11-23T20:00:49;7.30;99.90
15341;DHT22;7770;52.158;5.372;2022-11-23T20:03:37;7.40;99.90
15341;DHT22;7770;52.158;5.372;2022-11-23T20:06:26;7.30;99.90
15341;DHT22;7770;52.158;5.372;2022-11-23T20:09:16;7.30;99.90
15341;DHT22;7770;52.158;5.372;2022-11-23T20:12:04;7.40;99.90
15341;DHT22;7770;52.158;5.372;2022-11-23T20:14:50;7.40;99.90
15341;DHT22;7770;52.158;5.372;2022-11-23T20:17:36;7.40;99.90
15341;DHT22;7770;52.158;5.372;2022-11-23T20:20:22;7.40;99.90
15341;DHT22;7770;52.158;5.372;2022-11-23T20:23:09;7.40;99.90
15341;DHT22;7770;52.158;5.372;2022-11-23T20:25:56;7.30;99.90
15341;DHT22;7770;52.158;5.372;2022-11-23T20:28:42;7.30;99.90
15341;DHT22;7770;52.158;5.372;2022-11-23T20:31:30;7.40;99.90
15341;DHT22;7770;52.158;5.372;2022-11-23T20:34:17;7.30;99.90
15341;DHT22;7770;52.158;5.372;2022-11-23T20:37:03;7.30;99.90
15341;DHT22;7770;52.158;5.372;2022-11-23T20:39:51;7.30;99.90
15341;DHT22;7770;52.158;5.372;2022-11-23T20:42:38;7.30;99.90